createdAt,value
2022-07-30T00:00:12.597Z,0.77
2022-07-30T00:02:51.767Z,0.60
2022-07-30T00:05:18.471Z,0.57
2022-07-30T00:07:45.136Z,0.65
2022-07-30T00:10:11.770Z,0.60
2022-07-30T00:12:38.443Z,0.60
2022-07-30T00:15:05.629Z,0.60
2022-07-30T00:17:32.319Z,0.60
2022-07-30T00:19:58.942Z,0.70
2022-07-30T00:22:25.954Z,0.73
2022-07-30T00:24:52.643Z,0.80
2022-07-30T00:27:19.492Z,0.70
2022-07-30T00:29:46.144Z,0.60
2022-07-30T00:32:12.865Z,0.60
2022-07-30T00:34:39.523Z,0.68
2022-07-30T00:37:06.290Z,0.50
2022-07-30T00:39:32.960Z,0.60
2022-07-30T00:42:01.964Z,0.70
2022-07-30T00:44:29.908Z,0.60
2022-07-30T00:46:57.317Z,0.70
2022-07-30T00:49:25.103Z,0.80
2022-07-30T00:51:52.251Z,0.75
2022-07-30T00:54:19.405Z,0.80
2022-07-30T00:56:46.151Z,0.65
2022-07-30T00:59:12.783Z,0.70
2022-07-30T01:01:39.800Z,0.80
2022-07-30T01:04:11.588Z,0.80
2022-07-30T01:06:39.887Z,0.80
2022-07-30T01:09:07.924Z,0.70
2022-07-30T01:11:38.324Z,0.80
2022-07-30T01:14:07.036Z,0.70
2022-07-30T01:16:35.829Z,0.70
2022-07-30T01:19:26.556Z,0.80
2022-07-30T01:22:19.936Z,0.70
2022-07-30T01:24:56.171Z,0.80
2022-07-30T01:27:25.060Z,0.80
2022-07-30T01:29:54.072Z,0.80
2022-07-30T01:32:23.753Z,0.70
2022-07-30T01:34:52.679Z,0.90
2022-07-30T01:37:21.206Z,0.73
2022-07-30T01:39:50.027Z,0.88
2022-07-30T01:42:19.455Z,0.90
2022-07-30T01:44:48.501Z,0.80
2022-07-30T01:47:17.384Z,0.93
2022-07-30T01:49:47.234Z,1.10
2022-07-30T01:52:16.984Z,1.00
2022-07-30T01:54:46.996Z,1.08
2022-07-30T01:57:15.357Z,1.08
2022-07-30T01:59:45.920Z,1.15
2022-07-30T02:02:12.557Z,1.15
2022-07-30T02:04:44.689Z,1.02
2022-07-30T02:07:18.358Z,1.17
2022-07-30T02:09:58.279Z,1.00
2022-07-30T02:12:29.373Z,1.00
2022-07-30T02:15:29.428Z,1.20
2022-07-30T02:18:07.984Z,1.67
2022-07-30T02:20:35.601Z,2.00
2022-07-30T02:23:07.541Z,1.73
2022-07-30T02:25:39.105Z,2.08
2022-07-30T02:28:09.883Z,2.08
2022-07-30T02:30:40.655Z,2.10
2022-07-30T02:33:13.097Z,1.50
2022-07-30T02:35:41.238Z,1.00
2022-07-30T02:38:10.240Z,1.02
2022-07-30T02:40:42.039Z,0.95
2022-07-30T02:43:09.179Z,1.10
2022-07-30T02:45:38.152Z,1.23
2022-07-30T02:48:07.809Z,1.10
2022-07-30T02:50:35.902Z,1.42
2022-07-30T02:53:07.116Z,1.40
2022-07-30T02:55:35.562Z,1.20
2022-07-30T02:58:05.890Z,1.65
2022-07-30T03:00:34.906Z,1.58
2022-07-30T03:03:05.752Z,2.15
2022-07-30T03:05:33.174Z,2.67
2022-07-30T03:08:00.972Z,1.95
2022-07-30T03:10:29.062Z,1.67
2022-07-30T03:12:56.639Z,3.00
2022-07-30T03:15:23.547Z,2.35
2022-07-30T03:17:53.786Z,3.03
2022-07-30T03:20:27.796Z,3.30
2022-07-30T03:22:57.367Z,3.53
2022-07-30T03:25:27.522Z,2.50
2022-07-30T03:27:57.813Z,2.85
2022-07-30T03:30:26.519Z,3.30
2022-07-30T03:32:54.310Z,4.03
2022-07-30T03:35:25.252Z,4.38
2022-07-30T03:37:54.608Z,3.90
2022-07-30T03:40:22.630Z,4.07
2022-07-30T03:42:50.855Z,5.35
2022-07-30T03:45:18.912Z,5.13
2022-07-30T03:47:46.828Z,5.50
2022-07-30T03:50:15.160Z,5.45
2022-07-30T03:52:43.072Z,4.28
2022-07-30T03:55:11.540Z,3.00
2022-07-30T03:57:38.698Z,2.95
2022-07-30T04:00:08.365Z,3.45
2022-07-30T04:02:43.016Z,3.45
2022-07-30T04:05:09.953Z,3.20
2022-07-30T04:07:41.396Z,2.88
2022-07-30T04:10:12.483Z,3.00
2022-07-30T04:12:39.195Z,3.15
2022-07-30T04:16:40.234Z,2.67
2022-07-30T04:17:58.396Z,2.03
2022-07-30T04:20:31.652Z,2.58
2022-07-30T04:22:59.184Z,2.80
2022-07-30T04:25:26.511Z,3.17
2022-07-30T04:28:03.013Z,2.47
2022-07-30T04:30:31.446Z,2.50
2022-07-30T04:32:58.092Z,2.55
2022-07-30T04:35:51.175Z,2.10
2022-07-30T04:38:17.405Z,1.90
2022-07-30T04:40:44.131Z,2.58
2022-07-30T04:43:10.848Z,1.77
2022-07-30T04:45:39.799Z,1.85
2022-07-30T04:48:07.244Z,2.50
2022-07-30T04:50:36.085Z,3.08
2022-07-30T04:53:03.557Z,2.03
2022-07-30T04:55:32.626Z,2.40
2022-07-30T04:58:01.941Z,2.65
2022-07-30T05:00:32.407Z,2.17
2022-07-30T05:03:02.459Z,2.22
2022-07-30T05:05:32.423Z,2.22
2022-07-30T05:08:01.267Z,2.05
2022-07-30T05:10:28.270Z,2.53
2022-07-30T05:12:54.893Z,1.98
2022-07-30T05:15:21.788Z,2.20
2022-07-30T05:17:49.815Z,2.70
2022-07-30T05:20:16.553Z,2.25
2022-07-30T05:22:51.129Z,2.17
2022-07-30T05:25:18.122Z,2.60
2022-07-30T05:27:44.969Z,1.95
2022-07-30T05:30:12.126Z,2.08
2022-07-30T05:32:39.719Z,2.15
2022-07-30T05:35:06.690Z,1.92
2022-07-30T05:37:33.827Z,2.20
2022-07-30T05:40:03.347Z,2.33
2022-07-30T05:42:30.613Z,3.65
2022-07-30T05:44:57.546Z,1.45
2022-07-30T05:47:24.269Z,2.20
2022-07-30T05:49:51.085Z,1.90
2022-07-30T05:52:17.740Z,3.05
2022-07-30T05:54:45.503Z,1.63
2022-07-30T05:57:12.143Z,2.08
2022-07-30T05:59:38.947Z,1.77
2022-07-30T06:02:06.784Z,1.40
2022-07-30T06:04:35.544Z,2.08
2022-07-30T06:07:02.787Z,1.40
2022-07-30T06:09:37.136Z,1.88
2022-07-30T06:12:04.759Z,1.25
2022-07-30T06:14:32.595Z,1.40
2022-07-30T06:16:59.505Z,1.48
2022-07-30T06:19:26.468Z,1.02
2022-07-30T06:22:05.460Z,1.35
2022-07-30T06:24:34.040Z,1.10
2022-07-30T06:27:00.978Z,1.20
2022-07-30T06:29:27.855Z,1.00
2022-07-30T06:31:54.638Z,1.10
2022-07-30T06:34:21.460Z,1.50
2022-07-30T06:36:48.577Z,1.40
2022-07-30T06:39:15.258Z,1.33
2022-07-30T06:42:02.148Z,1.65
2022-07-30T06:44:28.856Z,1.27
2022-07-30T06:46:55.500Z,1.00
2022-07-30T06:49:23.010Z,1.30
2022-07-30T06:51:49.825Z,1.27
2022-07-30T06:54:16.433Z,1.30
2022-07-30T06:56:43.418Z,1.05
2022-07-30T06:59:10.466Z,1.30
2022-07-30T07:01:37.361Z,1.45
2022-07-30T07:04:04.457Z,1.27
2022-07-30T07:06:31.221Z,1.35
2022-07-30T07:08:57.833Z,1.20
2022-07-30T07:11:24.896Z,1.50
2022-07-30T07:13:51.626Z,1.30
2022-07-30T07:16:21.883Z,1.20
2022-07-30T07:18:48.745Z,1.10
2022-07-30T07:21:16.088Z,1.20
2022-07-30T07:23:42.752Z,1.23
2022-07-30T07:26:09.994Z,1.33
2022-07-30T07:28:36.866Z,1.48
2022-07-30T07:31:04.252Z,1.60
2022-07-30T07:33:30.977Z,1.83
2022-07-30T07:35:57.739Z,1.08
2022-07-30T07:38:24.482Z,1.80
2022-07-30T07:40:51.202Z,1.70
2022-07-30T07:43:18.256Z,1.27
2022-07-30T07:45:45.687Z,1.20
2022-07-30T07:48:12.691Z,1.30
2022-07-30T07:50:39.392Z,1.10
2022-07-30T07:53:06.711Z,1.25
2022-07-30T07:55:33.721Z,1.30
2022-07-30T07:58:00.892Z,1.73
2022-07-30T08:00:27.687Z,1.42
2022-07-30T08:02:54.494Z,1.25
2022-07-30T08:05:21.284Z,1.27
2022-07-30T08:07:47.928Z,1.20
2022-07-30T08:10:16.133Z,1.27
2022-07-30T08:12:43.746Z,1.23
2022-07-30T08:15:10.801Z,1.67
2022-07-30T08:17:44.978Z,1.45
2022-07-30T08:20:13.582Z,1.42
2022-07-30T08:22:41.230Z,1.33
2022-07-30T08:25:08.756Z,1.23
2022-07-30T08:27:35.884Z,1.13
2022-07-30T08:30:06.743Z,1.42
2022-07-30T08:32:33.453Z,1.23
2022-07-30T08:35:00.195Z,1.08
2022-07-30T08:37:26.978Z,1.20
2022-07-30T08:39:53.610Z,1.33
2022-07-30T08:42:20.421Z,1.70
2022-07-30T08:44:47.062Z,1.38
2022-07-30T08:47:18.514Z,1.45
2022-07-30T08:49:46.664Z,1.30
2022-07-30T08:52:13.352Z,1.50
2022-07-30T08:54:40.952Z,1.50
2022-07-30T08:57:07.968Z,1.30
2022-07-30T08:59:59.615Z,2.67
2022-07-30T09:02:27.398Z,1.45
2022-07-30T09:04:54.766Z,1.30
2022-07-30T09:07:21.617Z,1.20
2022-07-30T09:09:48.268Z,1.38
2022-07-30T09:12:33.298Z,1.48
2022-07-30T09:15:16.465Z,1.50
2022-07-30T09:17:55.546Z,1.17
2022-07-30T09:20:27.623Z,1.63
2022-07-30T09:23:00.837Z,1.38
2022-07-30T09:25:45.864Z,1.30
2022-07-30T09:28:15.795Z,1.23
2022-07-30T09:30:47.236Z,1.40
2022-07-30T09:33:14.626Z,1.23
2022-07-30T09:35:42.723Z,1.40
2022-07-30T09:38:10.365Z,1.40
2022-07-30T09:40:37.280Z,1.75
2022-07-30T09:43:11.486Z,1.73
2022-07-30T09:46:00.690Z,1.63
2022-07-30T09:48:28.319Z,1.70
2022-07-30T09:50:56.053Z,1.77
2022-07-30T09:53:24.604Z,1.50
2022-07-30T09:55:51.794Z,1.60
2022-07-30T09:58:27.165Z,1.38
2022-07-30T10:00:59.722Z,1.70
2022-07-30T10:03:33.767Z,1.98
2022-07-30T10:06:03.588Z,1.60
2022-07-30T10:08:40.649Z,1.30
2022-07-30T10:11:10.874Z,1.35
2022-07-30T10:13:39.978Z,1.52
2022-07-30T10:16:09.346Z,1.65
2022-07-30T10:18:37.480Z,1.45
2022-07-30T10:21:05.593Z,1.83
2022-07-30T10:23:33.479Z,1.55
2022-07-30T10:26:03.811Z,2.33
2022-07-30T10:28:35.846Z,2.03
2022-07-30T10:31:08.356Z,2.60
2022-07-30T10:33:52.852Z,2.40
2022-07-30T10:36:23.877Z,2.10
2022-07-30T10:38:53.054Z,2.25
2022-07-30T10:41:43.333Z,2.80
2022-07-30T10:44:35.480Z,2.00
2022-07-30T10:47:07.625Z,2.22
2022-07-30T10:49:41.326Z,2.10
2022-07-30T10:52:10.650Z,2.08
2022-07-30T10:54:42.712Z,2.40
2022-07-30T10:57:14.867Z,2.35
2022-07-30T11:00:03.881Z,2.15
2022-07-30T11:02:35.753Z,2.25
2022-07-30T11:05:18.300Z,2.38
2022-07-30T11:07:47.270Z,2.65
2022-07-30T11:10:40.137Z,2.40
2022-07-30T11:13:08.444Z,2.20
2022-07-30T11:15:59.943Z,3.05
2022-07-30T11:18:28.616Z,3.00
2022-07-30T11:21:14.153Z,2.65
2022-07-30T11:23:41.595Z,2.80
2022-07-30T11:26:14.094Z,3.60
2022-07-30T11:28:46.131Z,2.45
2022-07-30T11:31:54.990Z,2.70
2022-07-30T11:34:20.755Z,3.00
2022-07-30T11:37:19.246Z,2.90
2022-07-30T11:39:58.670Z,2.92
2022-07-30T11:42:39.631Z,2.75
2022-07-30T11:45:29.503Z,3.67
2022-07-30T11:47:58.072Z,3.17
2022-07-30T11:50:25.903Z,3.40
2022-07-30T11:52:55.395Z,3.15
2022-07-30T11:55:24.528Z,3.20
2022-07-30T11:57:52.391Z,3.20
2022-07-30T12:00:19.579Z,2.95
2022-07-30T12:02:46.732Z,3.05
2022-07-30T12:05:13.589Z,3.63
2022-07-30T12:07:40.599Z,3.20
2022-07-30T12:10:25.672Z,3.53
2022-07-30T12:13:08.067Z,3.22
2022-07-30T12:15:37.610Z,3.45
2022-07-30T12:18:25.804Z,3.20
2022-07-30T12:20:59.793Z,3.30
2022-07-30T12:23:27.847Z,3.17
2022-07-30T12:25:55.066Z,3.17
2022-07-30T12:28:27.403Z,4.45
2022-07-30T12:30:54.943Z,3.05
2022-07-30T12:33:22.989Z,3.17
2022-07-30T12:35:55.188Z,3.13
2022-07-30T12:38:24.014Z,2.95
2022-07-30T12:41:00.455Z,3.30
2022-07-30T12:43:47.959Z,3.20
2022-07-30T12:46:23.067Z,3.33
2022-07-30T12:48:50.563Z,3.28
2022-07-30T12:51:17.613Z,3.28
2022-07-30T12:53:45.967Z,3.15
2022-07-30T12:56:18.680Z,2.95
2022-07-30T12:58:45.830Z,2.88
2022-07-30T13:01:13.164Z,3.40
2022-07-30T13:03:40.962Z,3.20
2022-07-30T13:06:23.427Z,3.50
2022-07-30T13:08:57.733Z,3.75
2022-07-30T13:11:49.016Z,3.70
2022-07-30T13:14:17.421Z,3.80
2022-07-30T13:16:44.569Z,3.60
2022-07-30T13:19:12.504Z,3.35
2022-07-30T13:21:42.969Z,3.70
2022-07-30T13:24:18.077Z,3.50
2022-07-30T13:26:45.490Z,3.40
2022-07-30T13:29:13.669Z,3.75
2022-07-30T13:31:42.467Z,3.90
2022-07-30T13:34:10.403Z,3.65
2022-07-30T13:36:37.130Z,3.88
2022-07-30T13:39:03.966Z,3.70
2022-07-30T13:41:30.850Z,3.63
2022-07-30T13:43:57.611Z,4.00
2022-07-30T13:46:24.207Z,4.18
2022-07-30T13:48:51.028Z,4.32
2022-07-30T13:51:17.796Z,3.78
2022-07-30T13:53:44.592Z,3.78
2022-07-30T13:56:12.700Z,3.33
2022-07-30T13:58:40.371Z,3.20
2022-07-30T14:01:07.493Z,3.78
2022-07-30T14:03:35.335Z,4.03
2022-07-30T14:06:11.083Z,3.50
2022-07-30T14:08:38.862Z,3.53
2022-07-30T14:11:05.513Z,3.75
2022-07-30T14:13:32.234Z,3.40
2022-07-30T14:15:58.926Z,3.65
2022-07-30T14:18:25.629Z,3.65
2022-07-30T14:20:53.799Z,3.60
2022-07-30T14:23:20.830Z,2.78
2022-07-30T14:25:47.772Z,3.50
2022-07-30T14:28:14.491Z,3.70
2022-07-30T14:30:42.107Z,3.20
2022-07-30T14:33:09.068Z,3.17
2022-07-30T14:35:35.783Z,3.72
2022-07-30T14:38:03.599Z,4.18
2022-07-30T14:40:30.577Z,3.67
2022-07-30T14:42:58.037Z,3.25
2022-07-30T14:45:25.542Z,2.53
2022-07-30T14:47:52.604Z,2.60
2022-07-30T14:50:19.500Z,2.88
2022-07-30T14:52:47.657Z,2.47
2022-07-30T14:55:14.619Z,3.72
2022-07-30T14:57:43.462Z,2.70
2022-07-30T15:00:11.895Z,2.65
2022-07-30T15:02:38.955Z,3.47
2022-07-30T15:05:06.342Z,4.40
2022-07-30T15:07:34.638Z,4.95
2022-07-30T15:10:02.638Z,4.53
2022-07-30T15:12:29.469Z,4.90
2022-07-30T15:14:56.251Z,5.55
2022-07-30T15:17:22.889Z,4.85
2022-07-30T15:19:50.662Z,5.38
2022-07-30T15:22:19.359Z,5.80
2022-07-30T15:24:45.995Z,5.07
2022-07-30T15:27:12.716Z,4.82
2022-07-30T15:29:39.370Z,4.60
2022-07-30T15:32:06.914Z,3.58
2022-07-30T15:34:34.579Z,4.00
2022-07-30T15:37:02.701Z,4.10
2022-07-30T15:39:29.822Z,3.80
2022-07-30T15:41:57.175Z,3.97
2022-07-30T15:44:24.505Z,2.55
2022-07-30T15:46:51.635Z,1.83
2022-07-30T15:49:18.464Z,2.10
2022-07-30T15:51:52.017Z,1.60
2022-07-30T15:54:23.273Z,1.80
2022-07-30T15:56:51.578Z,1.08
2022-07-30T15:59:18.480Z,1.00
2022-07-30T16:01:45.541Z,1.10
2022-07-30T16:04:19.747Z,2.67
2022-07-30T16:06:48.039Z,3.53
2022-07-30T16:09:16.035Z,3.30
2022-07-30T16:11:43.124Z,4.05
2022-07-30T16:14:10.543Z,4.15
2022-07-30T16:16:37.256Z,3.00
2022-07-30T16:19:03.972Z,3.63
2022-07-30T16:21:30.683Z,4.13
2022-07-30T16:23:57.386Z,4.60
2022-07-30T16:26:24.283Z,4.32
2022-07-30T16:28:50.991Z,4.93
2022-07-30T16:31:17.721Z,5.05
2022-07-30T16:33:44.399Z,5.45
2022-07-30T16:36:11.495Z,5.30
2022-07-30T16:38:38.160Z,4.78
2022-07-30T16:41:04.808Z,5.50
2022-07-30T16:43:32.107Z,5.10
2022-07-30T16:45:59.945Z,5.50
2022-07-30T16:48:26.709Z,5.13
2022-07-30T16:50:53.568Z,6.50
2022-07-30T16:53:20.363Z,5.72
2022-07-30T16:55:47.712Z,5.63
2022-07-30T16:58:14.380Z,5.82
2022-07-30T17:00:41.852Z,5.72
2022-07-30T17:03:08.938Z,5.57
2022-07-30T17:05:37.869Z,6.60
2022-07-30T17:08:12.243Z,5.20
2022-07-30T17:10:38.949Z,4.97
2022-07-30T17:13:07.687Z,5.68
2022-07-30T17:15:34.359Z,5.25
2022-07-30T17:18:01.796Z,5.25
2022-07-30T17:20:29.986Z,4.85
2022-07-30T17:22:56.893Z,5.78
2022-07-30T17:25:27.723Z,4.70
2022-07-30T17:27:58.744Z,4.82
2022-07-30T17:30:27.445Z,4.80
2022-07-30T17:32:54.418Z,3.60
2022-07-30T17:35:21.402Z,4.93
2022-07-30T17:37:48.150Z,4.00
2022-07-30T17:40:28.924Z,3.95
2022-07-30T17:43:05.683Z,4.28
2022-07-30T17:45:33.647Z,3.90
2022-07-30T17:48:01.800Z,3.83
2022-07-30T17:50:29.306Z,3.60
2022-07-30T17:52:56.162Z,3.75
2022-07-30T17:55:22.760Z,4.20
2022-07-30T17:57:49.498Z,3.30
2022-07-30T18:00:17.024Z,3.90
2022-07-30T18:02:43.758Z,3.78
2022-07-30T18:05:11.092Z,3.83
2022-07-30T18:07:37.759Z,4.25
2022-07-30T18:10:05.002Z,4.00
2022-07-30T18:12:31.834Z,4.18
2022-07-30T18:14:59.212Z,4.60
2022-07-30T18:17:26.275Z,4.18
2022-07-30T18:19:53.380Z,4.40
2022-07-30T18:22:29.532Z,4.80
2022-07-30T18:24:57.454Z,5.80
2022-07-30T18:27:24.169Z,7.90
2022-07-30T18:29:50.956Z,8.60
2022-07-30T18:32:17.612Z,8.60
2022-07-30T18:34:44.307Z,11.88
2022-07-30T18:37:10.892Z,11.75
2022-07-30T18:39:37.705Z,12.18
2022-07-30T18:42:05.110Z,13.80
2022-07-30T18:44:32.312Z,14.90
2022-07-30T18:46:59.071Z,14.80
2022-07-30T18:49:41.110Z,15.30
2022-07-30T18:52:08.220Z,16.25
2022-07-30T18:54:36.030Z,15.00
2022-07-30T18:57:03.155Z,15.35
2022-07-30T18:59:29.955Z,16.25
2022-07-30T19:01:56.712Z,17.55
2022-07-30T19:04:23.546Z,14.27
2022-07-30T19:06:50.374Z,15.93
2022-07-30T19:09:18.112Z,16.02
2022-07-30T19:11:48.037Z,17.58
2022-07-30T19:14:15.560Z,17.55
2022-07-30T19:16:46.367Z,18.98
2022-07-30T19:19:14.700Z,19.42
2022-07-30T19:21:41.587Z,19.30
2022-07-30T19:24:08.781Z,19.15
2022-07-30T19:26:39.397Z,20.40
2022-07-30T19:29:08.081Z,21.30
2022-07-30T19:31:35.477Z,19.77
2022-07-30T19:34:02.323Z,20.08
2022-07-30T19:36:30.263Z,21.60
2022-07-30T19:39:06.822Z,21.80
2022-07-30T19:41:40.772Z,19.65
2022-07-30T19:44:12.168Z,19.48
2022-07-30T19:46:41.303Z,18.42
2022-07-30T19:49:08.413Z,17.95
2022-07-30T19:52:09.976Z,20.15
2022-07-30T19:54:21.972Z,16.00
2022-07-30T19:56:49.155Z,16.90
2022-07-30T19:59:18.288Z,17.23
2022-07-30T20:01:44.939Z,17.85
2022-07-30T20:04:18.366Z,17.83
2022-07-30T20:06:46.137Z,17.15
2022-07-30T20:09:15.048Z,16.67
2022-07-30T20:11:45.975Z,16.85
2022-07-30T20:14:16.243Z,15.38
2022-07-30T20:16:43.152Z,14.00
2022-07-30T20:19:15.829Z,12.90
2022-07-30T20:21:56.462Z,14.25
2022-07-30T20:24:24.531Z,12.00
2022-07-30T20:26:52.442Z,11.90
2022-07-30T20:29:20.737Z,10.50
2022-07-30T20:31:49.767Z,9.27
2022-07-30T20:34:18.188Z,10.05
2022-07-30T20:36:45.132Z,11.07
2022-07-30T20:39:18.282Z,15.60
2022-07-30T20:41:45.266Z,15.68
2022-07-30T20:44:23.047Z,12.77
2022-07-30T20:46:50.600Z,11.50
2022-07-30T20:49:23.628Z,10.63
2022-07-30T20:51:55.601Z,8.07
2022-07-30T20:54:22.319Z,9.05
2022-07-30T20:56:51.029Z,9.05
2022-07-30T20:59:18.314Z,6.45
2022-07-30T21:01:50.358Z,2.92
2022-07-30T21:04:25.547Z,3.95
2022-07-30T21:06:52.636Z,2.42
2022-07-30T21:09:19.975Z,5.40
2022-07-30T21:11:50.242Z,5.07
2022-07-30T21:14:18.503Z,5.30
2022-07-30T21:16:46.853Z,5.28
2022-07-30T21:19:17.664Z,6.32
2022-07-30T21:21:48.245Z,5.65
2022-07-30T21:24:19.384Z,6.82
2022-07-30T21:26:50.700Z,8.98
2022-07-30T21:29:18.971Z,8.85
2022-07-30T21:32:01.580Z,11.02
2022-07-30T21:34:35.889Z,10.23
2022-07-30T21:37:09.080Z,11.82
2022-07-30T21:39:39.539Z,11.02
2022-07-30T21:42:07.630Z,11.10
2022-07-30T21:44:34.366Z,11.60
2022-07-30T21:47:01.017Z,13.00
2022-07-30T21:49:28.045Z,12.63
2022-07-30T21:51:58.462Z,12.23
2022-07-30T21:54:29.021Z,13.20
2022-07-30T21:56:58.598Z,14.63
2022-07-30T21:59:25.725Z,15.77
2022-07-30T22:01:55.380Z,17.25
2022-07-30T22:04:22.213Z,18.98
2022-07-30T22:06:48.865Z,18.60
2022-07-30T22:09:19.345Z,20.25
2022-07-30T22:12:02.078Z,19.38
2022-07-30T22:14:33.939Z,20.85
2022-07-30T22:17:01.539Z,22.70
2022-07-30T22:19:31.180Z,23.95
2022-07-30T22:21:58.696Z,22.90
2022-07-30T22:24:31.457Z,22.13
2022-07-30T22:27:14.478Z,22.88
2022-07-30T22:29:43.094Z,21.20
2022-07-30T22:32:10.773Z,21.63
2022-07-30T22:34:37.659Z,20.52
2022-07-30T22:37:04.697Z,20.98
2022-07-30T22:39:50.254Z,19.17
2022-07-30T22:42:24.539Z,22.17
2022-07-30T22:44:52.431Z,22.27
2022-07-30T22:47:21.668Z,21.73
2022-07-30T22:50:06.356Z,21.02
2022-07-30T22:52:39.082Z,22.40
2022-07-30T22:55:09.090Z,25.88
2022-07-30T22:57:37.674Z,25.27
2022-07-30T23:00:10.971Z,25.48
2022-07-30T23:02:40.422Z,27.67
2022-07-30T23:05:08.511Z,26.80
2022-07-30T23:07:39.740Z,27.75
2022-07-30T23:10:17.281Z,27.77
2022-07-30T23:12:48.242Z,26.58
2022-07-30T23:15:15.140Z,24.73
2022-07-30T23:17:41.867Z,24.92
2022-07-30T23:20:11.532Z,24.38
2022-07-30T23:22:38.654Z,23.70
2022-07-30T23:25:07.282Z,23.33
2022-07-30T23:27:34.469Z,23.38
2022-07-30T23:30:01.168Z,24.70
2022-07-30T23:32:28.184Z,23.45
2022-07-30T23:34:54.846Z,24.15
2022-07-30T23:37:21.874Z,25.02
2022-07-30T23:39:48.477Z,26.25
2022-07-30T23:42:15.380Z,25.33
2022-07-30T23:44:42.045Z,24.85
2022-07-30T23:47:08.619Z,25.85
2022-07-30T23:49:35.237Z,26.15
2022-07-30T23:52:01.865Z,27.55
2022-07-30T23:54:28.991Z,25.98
2022-07-30T23:56:56.321Z,26.17
